sensor_id;sensor_type;location;lat;lon;timestamp;P1;durP1;ratioP1;P2;durP2;ratioP2
1178;SDS011;578;48.408;10.004;2022-11-20T00:01:04;6.00;;;4.80;;
1178;SDS011;578;48.408;10.004;2022-11-20T00:03:31;6.40;;;4.00;;
1178;SDS011;578;48.408;10.004;2022-11-20T00:05:59;6.67;;;5.13;;
1178;SDS011;578;48.408;10.004;2022-11-20T00:08:26;8.40;;;4.83;;
1178;SDS011;578;48.408;10.004;2022-11-20T00:10:53;6.77;;;4.97;;
1178;SDS011;578;48.408;10.004;2022-11-20T00:13:19;5.33;;;4.83;;
1178;SDS011;578;48.408;10.004;2022-11-20T00:15:47;9.50;;;5.50;;
1178;SDS011;578;48.408;10.004;2022-11-20T00:18:14;6.27;;;4.80;;
1178;SDS011;578;48.408;10.004;2022-11-20T00:20:41;9.87;;;5.60;;
1178;SDS011;578;48.408;10.004;2022-11-20T00:23:07;8.57;;;5.80;;
1178;SDS011;578;48.408;10.004;2022-11-20T00:25:34;8.30;;;5.17;;
1178;SDS011;578;48.408;10.004;2022-11-20T00:28:01;7.07;;;5.33;;
1178;SDS011;578;48.408;10.004;2022-11-20T00:30:28;5.97;;;4.70;;
1178;SDS011;578;48.408;10.004;2022-11-20T00:32:57;5.73;;;5.00;;
1178;SDS011;578;48.408;10.004;2022-11-20T00:35:24;6.67;;;5.17;;
1178;SDS011;578;48.408;10.004;2022-11-20T00:37:50;9.03;;;4.47;;
1178;SDS011;578;48.408;10.004;2022-11-20T00:40:17;8.07;;;5.90;;
1178;SDS011;578;48.408;10.004;2022-11-20T00:42:44;6.70;;;4.53;;
1178;SDS011;578;48.408;10.004;2022-11-20T00:45:10;6.97;;;5.07;;
1178;SDS011;578;48.408;10.004;2022-11-20T00:47:37;7.63;;;4.60;;
1178;SDS011;578;48.408;10.004;2022-11-20T00:50:06;6.03;;;5.07;;
1178;SDS011;578;48.408;10.004;2022-11-20T00:52:33;9.80;;;5.30;;
1178;SDS011;578;48.408;10.004;2022-11-20T00:54:59;8.43;;;5.17;;
1178;SDS011;578;48.408;10.004;2022-11-20T00:57:26;6.70;;;4.70;;
1178;SDS011;578;48.408;10.004;2022-11-20T00:59:53;7.20;;;4.95;;
1178;SDS011;578;48.408;10.004;2022-11-20T01:02:20;5.60;;;4.43;;
1178;SDS011;578;48.408;10.004;2022-11-20T01:04:46;7.20;;;6.00;;
1178;SDS011;578;48.408;10.004;2022-11-20T01:07:14;7.57;;;5.43;;
1178;SDS011;578;48.408;10.004;2022-11-20T01:09:41;7.90;;;5.35;;
1178;SDS011;578;48.408;10.004;2022-11-20T01:12:08;7.17;;;5.10;;
1178;SDS011;578;48.408;10.004;2022-11-20T01:14:35;6.77;;;5.00;;
1178;SDS011;578;48.408;10.004;2022-11-20T01:17:02;5.97;;;4.85;;
1178;SDS011;578;48.408;10.004;2022-11-20T01:19:29;9.93;;;6.23;;
1178;SDS011;578;48.408;10.004;2022-11-20T01:21:56;8.88;;;6.00;;
1178;SDS011;578;48.408;10.004;2022-11-20T01:24:24;7.85;;;6.00;;
1178;SDS011;578;48.408;10.004;2022-11-20T01:26:51;6.13;;;5.13;;
1178;SDS011;578;48.408;10.004;2022-11-20T01:29:18;6.67;;;5.23;;
1178;SDS011;578;48.408;10.004;2022-11-20T01:31:47;5.60;;;4.65;;
1178;SDS011;578;48.408;10.004;2022-11-20T01:34:14;7.20;;;6.50;;
1178;SDS011;578;48.408;10.004;2022-11-20T01:36:42;5.80;;;4.32;;
1178;SDS011;578;48.408;10.004;2022-11-20T01:39:10;6.07;;;5.47;;
1178;SDS011;578;48.408;10.004;2022-11-20T01:41:40;11.10;;;9.70;;
1178;SDS011;578;48.408;10.004;2022-11-20T01:47:14;9.40;;;5.95;;
1178;SDS011;578;48.408;10.004;2022-11-20T01:49:44;8.68;;;5.75;;
1178;SDS011;578;48.408;10.004;2022-11-20T01:52:15;8.00;;;5.88;;
1178;SDS011;578;48.408;10.004;2022-11-20T01:54:45;9.15;;;6.20;;
1178;SDS011;578;48.408;10.004;2022-11-20T01:57:15;8.80;;;5.65;;
1178;SDS011;578;48.408;10.004;2022-11-20T01:59:47;7.38;;;5.80;;
1178;SDS011;578;48.408;10.004;2022-11-20T02:02:19;9.20;;;5.60;;
1178;SDS011;578;48.408;10.004;2022-11-20T02:04:47;6.00;;;4.80;;
1178;SDS011;578;48.408;10.004;2022-11-20T02:07:17;7.13;;;5.97;;
1178;SDS011;578;48.408;10.004;2022-11-20T02:09:46;6.50;;;5.70;;
1178;SDS011;578;48.408;10.004;2022-11-20T02:12:12;6.85;;;5.38;;
1178;SDS011;578;48.408;10.004;2022-11-20T02:14:55;7.43;;;6.28;;
1178;SDS011;578;48.408;10.004;2022-11-20T02:17:23;9.35;;;6.65;;
1178;SDS011;578;48.408;10.004;2022-11-20T02:19:50;7.07;;;5.68;;
1178;SDS011;578;48.408;10.004;2022-11-20T02:22:18;6.63;;;5.55;;
1178;SDS011;578;48.408;10.004;2022-11-20T02:24:50;8.93;;;6.43;;
1178;SDS011;578;48.408;10.004;2022-11-20T02:27:17;7.10;;;6.20;;
1178;SDS011;578;48.408;10.004;2022-11-20T02:29:46;7.40;;;6.20;;
1178;SDS011;578;48.408;10.004;2022-11-20T02:32:19;8.48;;;6.05;;
1178;SDS011;578;48.408;10.004;2022-11-20T02:34:47;7.63;;;6.32;;
1178;SDS011;578;48.408;10.004;2022-11-20T02:37:14;11.10;;;6.40;;
1178;SDS011;578;48.408;10.004;2022-11-20T02:39:42;8.15;;;6.32;;
1178;SDS011;578;48.408;10.004;2022-11-20T02:42:11;11.32;;;5.82;;
1178;SDS011;578;48.408;10.004;2022-11-20T02:44:38;8.27;;;5.72;;
1178;SDS011;578;48.408;10.004;2022-11-20T02:47:05;8.00;;;5.78;;
1178;SDS011;578;48.408;10.004;2022-11-20T02:49:32;7.47;;;6.15;;
1178;SDS011;578;48.408;10.004;2022-11-20T02:51:59;7.18;;;5.47;;
1178;SDS011;578;48.408;10.004;2022-11-20T02:54:26;10.80;;;6.38;;
1178;SDS011;578;48.408;10.004;2022-11-20T02:56:52;7.38;;;6.03;;
1178;SDS011;578;48.408;10.004;2022-11-20T02:59:21;6.28;;;5.13;;
1178;SDS011;578;48.408;10.004;2022-11-20T03:01:47;7.18;;;5.47;;
1178;SDS011;578;48.408;10.004;2022-11-20T03:04:14;6.88;;;4.57;;
1178;SDS011;578;48.408;10.004;2022-11-20T03:06:41;10.50;;;5.80;;
1178;SDS011;578;48.408;10.004;2022-11-20T03:09:08;9.25;;;6.03;;
1178;SDS011;578;48.408;10.004;2022-11-20T03:11:34;7.30;;;6.03;;
1178;SDS011;578;48.408;10.004;2022-11-20T03:14:02;9.50;;;6.80;;
1178;SDS011;578;48.408;10.004;2022-11-20T03:16:30;9.70;;;6.25;;
1178;SDS011;578;48.408;10.004;2022-11-20T03:18:57;8.77;;;6.93;;
1178;SDS011;578;48.408;10.004;2022-11-20T03:21:24;9.65;;;7.00;;
1178;SDS011;578;48.408;10.004;2022-11-20T03:23:52;7.95;;;6.43;;
1178;SDS011;578;48.408;10.004;2022-11-20T03:26:20;11.85;;;6.50;;
1178;SDS011;578;48.408;10.004;2022-11-20T03:28:48;11.80;;;6.68;;
1178;SDS011;578;48.408;10.004;2022-11-20T03:31:17;10.00;;;5.50;;
1178;SDS011;578;48.408;10.004;2022-11-20T03:33:47;9.05;;;6.03;;
1178;SDS011;578;48.408;10.004;2022-11-20T03:36:14;13.73;;;7.07;;
1178;SDS011;578;48.408;10.004;2022-11-20T03:38:42;6.57;;;5.07;;
1178;SDS011;578;48.408;10.004;2022-11-20T03:41:09;6.63;;;5.32;;
1178;SDS011;578;48.408;10.004;2022-11-20T03:43:38;8.93;;;5.72;;
1178;SDS011;578;48.408;10.004;2022-11-20T03:46:06;8.70;;;5.25;;
1178;SDS011;578;48.408;10.004;2022-11-20T03:48:33;7.50;;;5.15;;
1178;SDS011;578;48.408;10.004;2022-11-20T03:51:08;6.13;;;4.63;;
1178;SDS011;578;48.408;10.004;2022-11-20T03:53:36;7.70;;;4.68;;
1178;SDS011;578;48.408;10.004;2022-11-20T03:56:03;7.63;;;5.38;;
1178;SDS011;578;48.408;10.004;2022-11-20T03:58:32;6.88;;;5.22;;
1178;SDS011;578;48.408;10.004;2022-11-20T04:01:04;7.05;;;5.30;;
1178;SDS011;578;48.408;10.004;2022-11-20T04:03:32;9.27;;;5.63;;
1178;SDS011;578;48.408;10.004;2022-11-20T04:06:01;6.85;;;4.72;;
1178;SDS011;578;48.408;10.004;2022-11-20T04:08:30;6.80;;;4.60;;
1178;SDS011;578;48.408;10.004;2022-11-20T04:10:56;7.68;;;5.43;;
1178;SDS011;578;48.408;10.004;2022-11-20T04:13:34;5.90;;;4.85;;
1178;SDS011;578;48.408;10.004;2022-11-20T04:16:02;7.60;;;5.40;;
1178;SDS011;578;48.408;10.004;2022-11-20T04:18:28;5.28;;;4.50;;
1178;SDS011;578;48.408;10.004;2022-11-20T04:20:56;4.45;;;3.95;;
1178;SDS011;578;48.408;10.004;2022-11-20T04:23:23;9.27;;;5.38;;
1178;SDS011;578;48.408;10.004;2022-11-20T04:25:51;5.20;;;3.92;;
1178;SDS011;578;48.408;10.004;2022-11-20T04:28:18;7.57;;;5.22;;
1178;SDS011;578;48.408;10.004;2022-11-20T04:30:44;7.60;;;5.60;;
1178;SDS011;578;48.408;10.004;2022-11-20T04:33:11;7.22;;;5.35;;
1178;SDS011;578;48.408;10.004;2022-11-20T04:35:38;9.95;;;5.93;;
1178;SDS011;578;48.408;10.004;2022-11-20T04:38:05;7.22;;;5.43;;
1178;SDS011;578;48.408;10.004;2022-11-20T04:40:31;7.95;;;4.97;;
1178;SDS011;578;48.408;10.004;2022-11-20T04:43:00;7.15;;;5.53;;
1178;SDS011;578;48.408;10.004;2022-11-20T04:45:26;6.90;;;4.45;;
1178;SDS011;578;48.408;10.004;2022-11-20T04:47:53;5.70;;;4.95;;
1178;SDS011;578;48.408;10.004;2022-11-20T04:50:20;6.45;;;5.18;;
1178;SDS011;578;48.408;10.004;2022-11-20T04:52:46;7.88;;;5.35;;
1178;SDS011;578;48.408;10.004;2022-11-20T04:55:13;6.22;;;5.00;;
1178;SDS011;578;48.408;10.004;2022-11-20T04:57:40;7.88;;;5.55;;
1178;SDS011;578;48.408;10.004;2022-11-20T05:00:09;7.60;;;5.22;;
1178;SDS011;578;48.408;10.004;2022-11-20T05:02:36;6.72;;;4.75;;
1178;SDS011;578;48.408;10.004;2022-11-20T05:05:03;6.90;;;4.55;;
1178;SDS011;578;48.408;10.004;2022-11-20T05:07:30;6.53;;;5.30;;
1178;SDS011;578;48.408;10.004;2022-11-20T05:09:57;7.50;;;5.20;;
1178;SDS011;578;48.408;10.004;2022-11-20T05:12:24;7.88;;;5.53;;
1178;SDS011;578;48.408;10.004;2022-11-20T05:14:50;8.98;;;7.35;;
1178;SDS011;578;48.408;10.004;2022-11-20T05:17:18;6.97;;;5.28;;
1178;SDS011;578;48.408;10.004;2022-11-20T05:19:45;6.35;;;5.30;;
1178;SDS011;578;48.408;10.004;2022-11-20T05:22:12;7.07;;;5.45;;
1178;SDS011;578;48.408;10.004;2022-11-20T05:24:38;7.25;;;6.10;;
1178;SDS011;578;48.408;10.004;2022-11-20T05:27:05;5.80;;;4.80;;
1178;SDS011;578;48.408;10.004;2022-11-20T05:29:32;7.70;;;5.50;;
1178;SDS011;578;48.408;10.004;2022-11-20T05:31:59;7.53;;;4.35;;
1178;SDS011;578;48.408;10.004;2022-11-20T05:34:27;5.47;;;4.10;;
1178;SDS011;578;48.408;10.004;2022-11-20T05:36:53;7.22;;;5.20;;
1178;SDS011;578;48.408;10.004;2022-11-20T05:39:20;6.47;;;5.22;;
1178;SDS011;578;48.408;10.004;2022-11-20T05:41:47;7.88;;;4.97;;
1178;SDS011;578;48.408;10.004;2022-11-20T05:44:34;7.53;;;5.60;;
1178;SDS011;578;48.408;10.004;2022-11-20T05:47:01;6.68;;;5.28;;
1178;SDS011;578;48.408;10.004;2022-11-20T05:49:29;7.63;;;5.60;;
1178;SDS011;578;48.408;10.004;2022-11-20T05:51:56;9.97;;;6.33;;
1178;SDS011;578;48.408;10.004;2022-11-20T05:54:23;8.95;;;6.65;;
1178;SDS011;578;48.408;10.004;2022-11-20T05:56:50;8.60;;;6.15;;
1178;SDS011;578;48.408;10.004;2022-11-20T05:59:16;8.32;;;5.78;;
1178;SDS011;578;48.408;10.004;2022-11-20T06:01:43;7.97;;;5.97;;
1178;SDS011;578;48.408;10.004;2022-11-20T06:04:10;7.68;;;5.50;;
1178;SDS011;578;48.408;10.004;2022-11-20T06:06:38;6.97;;;5.30;;
1178;SDS011;578;48.408;10.004;2022-11-20T06:09:05;11.65;;;6.68;;
1178;SDS011;578;48.408;10.004;2022-11-20T06:11:32;9.00;;;6.50;;
1178;SDS011;578;48.408;10.004;2022-11-20T06:13:58;9.30;;;6.53;;
1178;SDS011;578;48.408;10.004;2022-11-20T06:16:25;11.65;;;8.20;;
1178;SDS011;578;48.408;10.004;2022-11-20T06:18:52;8.57;;;6.13;;
1178;SDS011;578;48.408;10.004;2022-11-20T06:21:19;11.57;;;7.45;;
1178;SDS011;578;48.408;10.004;2022-11-20T06:23:50;11.82;;;7.60;;
1178;SDS011;578;48.408;10.004;2022-11-20T06:26:19;10.57;;;6.70;;
1178;SDS011;578;48.408;10.004;2022-11-20T06:28:46;9.43;;;6.93;;
1178;SDS011;578;48.408;10.004;2022-11-20T06:31:14;11.55;;;6.78;;
1178;SDS011;578;48.408;10.004;2022-11-20T06:33:42;14.00;;;8.43;;
1178;SDS011;578;48.408;10.004;2022-11-20T06:36:10;12.10;;;7.90;;
1178;SDS011;578;48.408;10.004;2022-11-20T06:38:38;11.48;;;7.07;;
1178;SDS011;578;48.408;10.004;2022-11-20T06:41:07;12.20;;;6.97;;
1178;SDS011;578;48.408;10.004;2022-11-20T06:43:37;9.65;;;7.03;;
1178;SDS011;578;48.408;10.004;2022-11-20T06:46:04;9.73;;;6.22;;
1178;SDS011;578;48.408;10.004;2022-11-20T06:48:31;10.48;;;6.57;;
1178;SDS011;578;48.408;10.004;2022-11-20T06:50:58;8.63;;;6.50;;
1178;SDS011;578;48.408;10.004;2022-11-20T06:53:25;8.35;;;6.00;;
1178;SDS011;578;48.408;10.004;2022-11-20T06:55:51;11.77;;;8.30;;
1178;SDS011;578;48.408;10.004;2022-11-20T06:58:23;10.43;;;6.80;;
1178;SDS011;578;48.408;10.004;2022-11-20T07:00:52;8.10;;;6.73;;
1178;SDS011;578;48.408;10.004;2022-11-20T07:03:18;11.18;;;7.45;;
1178;SDS011;578;48.408;10.004;2022-11-20T07:05:45;10.13;;;7.40;;
1178;SDS011;578;48.408;10.004;2022-11-20T07:08:12;9.80;;;7.50;;
1178;SDS011;578;48.408;10.004;2022-11-20T07:10:39;9.93;;;7.13;;
1178;SDS011;578;48.408;10.004;2022-11-20T07:13:05;7.87;;;6.17;;
1178;SDS011;578;48.408;10.004;2022-11-20T07:15:34;8.73;;;6.50;;
1178;SDS011;578;48.408;10.004;2022-11-20T07:18:00;10.40;;;6.90;;
1178;SDS011;578;48.408;10.004;2022-11-20T07:20:27;10.65;;;6.30;;
1178;SDS011;578;48.408;10.004;2022-11-20T07:22:54;10.63;;;7.70;;
1178;SDS011;578;48.408;10.004;2022-11-20T07:25:21;8.43;;;6.33;;
1178;SDS011;578;48.408;10.004;2022-11-20T07:27:48;11.13;;;6.93;;
1178;SDS011;578;48.408;10.004;2022-11-20T07:30:15;9.50;;;5.50;;
1178;SDS011;578;48.408;10.004;2022-11-20T07:32:43;7.30;;;6.10;;
1178;SDS011;578;48.408;10.004;2022-11-20T07:35:12;9.27;;;7.27;;
1178;SDS011;578;48.408;10.004;2022-11-20T07:37:39;8.40;;;6.10;;
1178;SDS011;578;48.408;10.004;2022-11-20T07:40:06;7.27;;;5.50;;
1178;SDS011;578;48.408;10.004;2022-11-20T07:42:33;9.17;;;6.40;;
1178;SDS011;578;48.408;10.004;2022-11-20T07:45:00;8.17;;;6.03;;
1178;SDS011;578;48.408;10.004;2022-11-20T07:47:26;6.90;;;5.80;;
1178;SDS011;578;48.408;10.004;2022-11-20T07:49:54;8.50;;;6.43;;
1178;SDS011;578;48.408;10.004;2022-11-20T07:52:21;8.97;;;7.00;;
1178;SDS011;578;48.408;10.004;2022-11-20T07:54:48;7.80;;;5.67;;
1178;SDS011;578;48.408;10.004;2022-11-20T07:57:14;6.20;;;5.20;;
1178;SDS011;578;48.408;10.004;2022-11-20T07:59:41;7.90;;;5.43;;
1178;SDS011;578;48.408;10.004;2022-11-20T08:02:09;9.27;;;5.10;;
1178;SDS011;578;48.408;10.004;2022-11-20T08:04:36;5.57;;;5.00;;
1178;SDS011;578;48.408;10.004;2022-11-20T08:07:04;7.17;;;4.90;;
1178;SDS011;578;48.408;10.004;2022-11-20T08:09:31;5.20;;;4.57;;
1178;SDS011;578;48.408;10.004;2022-11-20T08:11:58;6.73;;;5.10;;
1178;SDS011;578;48.408;10.004;2022-11-20T08:14:57;5.73;;;5.20;;
1178;SDS011;578;48.408;10.004;2022-11-20T08:17:23;6.87;;;5.03;;
1178;SDS011;578;48.408;10.004;2022-11-20T08:19:50;6.83;;;4.83;;
1178;SDS011;578;48.408;10.004;2022-11-20T08:22:18;7.07;;;4.70;;
1178;SDS011;578;48.408;10.004;2022-11-20T08:24:45;6.80;;;5.20;;
1178;SDS011;578;48.408;10.004;2022-11-20T08:27:12;9.13;;;6.33;;
1178;SDS011;578;48.408;10.004;2022-11-20T08:29:39;11.47;;;5.87;;
1178;SDS011;578;48.408;10.004;2022-11-20T08:32:06;11.33;;;6.70;;
1178;SDS011;578;48.408;10.004;2022-11-20T08:34:33;7.70;;;5.20;;
1178;SDS011;578;48.408;10.004;2022-11-20T08:37:01;7.30;;;5.97;;
1178;SDS011;578;48.408;10.004;2022-11-20T08:42:00;8.43;;;5.80;;
1178;SDS011;578;48.408;10.004;2022-11-20T08:44:27;9.57;;;6.57;;
1178;SDS011;578;48.408;10.004;2022-11-20T08:46:54;7.87;;;6.20;;
1178;SDS011;578;48.408;10.004;2022-11-20T08:49:20;6.70;;;5.63;;
1178;SDS011;578;48.408;10.004;2022-11-20T08:51:47;8.20;;;6.73;;
1178;SDS011;578;48.408;10.004;2022-11-20T08:54:17;7.20;;;5.73;;
1178;SDS011;578;48.408;10.004;2022-11-20T08:56:44;6.63;;;4.80;;
1178;SDS011;578;48.408;10.004;2022-11-20T08:59:12;11.20;;;5.77;;
1178;SDS011;578;48.408;10.004;2022-11-20T09:01:39;5.87;;;5.07;;
1178;SDS011;578;48.408;10.004;2022-11-20T09:04:06;6.57;;;4.90;;
1178;SDS011;578;48.408;10.004;2022-11-20T09:06:33;6.30;;;4.63;;
1178;SDS011;578;48.408;10.004;2022-11-20T09:08:59;4.97;;;4.47;;
1178;SDS011;578;48.408;10.004;2022-11-20T09:11:26;8.23;;;5.00;;
1178;SDS011;578;48.408;10.004;2022-11-20T09:13:53;5.40;;;4.70;;
1178;SDS011;578;48.408;10.004;2022-11-20T09:16:21;7.10;;;4.73;;
1178;SDS011;578;48.408;10.004;2022-11-20T09:18:49;6.80;;;4.93;;
1178;SDS011;578;48.408;10.004;2022-11-20T09:21:16;5.97;;;4.87;;
1178;SDS011;578;48.408;10.004;2022-11-20T09:23:43;4.90;;;4.37;;
1178;SDS011;578;48.408;10.004;2022-11-20T09:26:10;7.37;;;4.33;;
1178;SDS011;578;48.408;10.004;2022-11-20T09:28:38;4.00;;;3.60;;
1178;SDS011;578;48.408;10.004;2022-11-20T09:31:05;3.80;;;3.40;;
1178;SDS011;578;48.408;10.004;2022-11-20T09:33:34;3.90;;;3.43;;
1178;SDS011;578;48.408;10.004;2022-11-20T09:36:01;3.50;;;3.20;;
1178;SDS011;578;48.408;10.004;2022-11-20T09:38:28;2.63;;;2.30;;
1178;SDS011;578;48.408;10.004;2022-11-20T09:40:56;4.03;;;3.33;;
1178;SDS011;578;48.408;10.004;2022-11-20T09:43:29;3.57;;;3.17;;
1178;SDS011;578;48.408;10.004;2022-11-20T09:46:07;4.90;;;3.70;;
1178;SDS011;578;48.408;10.004;2022-11-20T09:48:44;6.50;;;3.43;;
1178;SDS011;578;48.408;10.004;2022-11-20T09:51:23;4.90;;;3.40;;
1178;SDS011;578;48.408;10.004;2022-11-20T09:54:00;4.13;;;3.40;;
1178;SDS011;578;48.408;10.004;2022-11-20T09:56:37;3.60;;;2.80;;
1178;SDS011;578;48.408;10.004;2022-11-20T09:59:07;3.93;;;3.10;;
1178;SDS011;578;48.408;10.004;2022-11-20T10:01:47;2.73;;;2.17;;
1178;SDS011;578;48.408;10.004;2022-11-20T10:04:15;2.80;;;2.50;;
1178;SDS011;578;48.408;10.004;2022-11-20T10:06:47;3.70;;;2.53;;
1178;SDS011;578;48.408;10.004;2022-11-20T10:09:20;4.63;;;2.60;;
1178;SDS011;578;48.408;10.004;2022-11-20T10:11:53;2.33;;;1.90;;
1178;SDS011;578;48.408;10.004;2022-11-20T10:14:30;2.90;;;2.60;;
1178;SDS011;578;48.408;10.004;2022-11-20T10:17:08;6.50;;;2.50;;
1178;SDS011;578;48.408;10.004;2022-11-20T10:19:51;3.70;;;2.40;;
1178;SDS011;578;48.408;10.004;2022-11-20T10:22:32;3.17;;;2.73;;
1178;SDS011;578;48.408;10.004;2022-11-20T10:25:11;2.70;;;2.43;;
1178;SDS011;578;48.408;10.004;2022-11-20T10:27:56;2.27;;;1.57;;
1178;SDS011;578;48.408;10.004;2022-11-20T10:30:34;5.20;;;3.13;;
1178;SDS011;578;48.408;10.004;2022-11-20T10:33:06;3.20;;;2.67;;
1178;SDS011;578;48.408;10.004;2022-11-20T10:35:41;3.10;;;2.53;;
1178;SDS011;578;48.408;10.004;2022-11-20T10:38:12;2.43;;;1.90;;
1178;SDS011;578;48.408;10.004;2022-11-20T10:40:43;5.13;;;2.97;;
1178;SDS011;578;48.408;10.004;2022-11-20T10:43:12;4.03;;;1.97;;
1178;SDS011;578;48.408;10.004;2022-11-20T10:45:45;2.00;;;1.80;;
1178;SDS011;578;48.408;10.004;2022-11-20T10:48:16;2.97;;;2.53;;
1178;SDS011;578;48.408;10.004;2022-11-20T10:50:55;2.00;;;1.67;;
1178;SDS011;578;48.408;10.004;2022-11-20T10:53:37;4.30;;;1.97;;
1178;SDS011;578;48.408;10.004;2022-11-20T10:56:14;2.47;;;1.90;;
1178;SDS011;578;48.408;10.004;2022-11-20T10:58:46;3.60;;;2.10;;
1178;SDS011;578;48.408;10.004;2022-11-20T11:01:21;5.40;;;1.87;;
1178;SDS011;578;48.408;10.004;2022-11-20T11:03:48;2.73;;;1.80;;
1178;SDS011;578;48.408;10.004;2022-11-20T11:06:19;2.97;;;2.10;;
1178;SDS011;578;48.408;10.004;2022-11-20T11:08:53;2.60;;;2.13;;
1178;SDS011;578;48.408;10.004;2022-11-20T11:11:22;3.07;;;2.40;;
1178;SDS011;578;48.408;10.004;2022-11-20T11:13:51;3.03;;;2.53;;
1178;SDS011;578;48.408;10.004;2022-11-20T11:16:22;3.20;;;2.43;;
1178;SDS011;578;48.408;10.004;2022-11-20T11:18:50;2.43;;;2.23;;
1178;SDS011;578;48.408;10.004;2022-11-20T11:21:23;8.80;;;2.20;;
1178;SDS011;578;48.408;10.004;2022-11-20T11:23:57;3.03;;;2.47;;
1178;SDS011;578;48.408;10.004;2022-11-20T11:26:26;4.43;;;2.07;;
1178;SDS011;578;48.408;10.004;2022-11-20T11:28:54;2.20;;;2.00;;
1178;SDS011;578;48.408;10.004;2022-11-20T11:31:22;3.17;;;2.23;;
1178;SDS011;578;48.408;10.004;2022-11-20T11:33:50;3.50;;;2.30;;
1178;SDS011;578;48.408;10.004;2022-11-20T11:36:17;3.17;;;2.23;;
1178;SDS011;578;48.408;10.004;2022-11-20T11:38:48;2.50;;;1.97;;
1178;SDS011;578;48.408;10.004;2022-11-20T11:41:19;2.23;;;1.73;;
1178;SDS011;578;48.408;10.004;2022-11-20T11:43:51;2.50;;;2.20;;
1178;SDS011;578;48.408;10.004;2022-11-20T11:46:36;2.33;;;1.90;;
1178;SDS011;578;48.408;10.004;2022-11-20T11:49:14;3.93;;;1.90;;
1178;SDS011;578;48.408;10.004;2022-11-20T11:51:46;4.13;;;2.33;;
1178;SDS011;578;48.408;10.004;2022-11-20T11:54:26;2.33;;;1.77;;
1178;SDS011;578;48.408;10.004;2022-11-20T11:56:58;4.73;;;2.57;;
1178;SDS011;578;48.408;10.004;2022-11-20T11:59:33;2.13;;;1.80;;
1178;SDS011;578;48.408;10.004;2022-11-20T12:02:13;2.20;;;1.90;;
1178;SDS011;578;48.408;10.004;2022-11-20T12:04:49;2.23;;;2.03;;
1178;SDS011;578;48.408;10.004;2022-11-20T12:07:22;2.47;;;2.00;;
1178;SDS011;578;48.408;10.004;2022-11-20T12:09:58;3.00;;;2.07;;
1178;SDS011;578;48.408;10.004;2022-11-20T12:12:29;3.63;;;2.00;;
1178;SDS011;578;48.408;10.004;2022-11-20T12:15:02;2.87;;;2.23;;
1178;SDS011;578;48.408;10.004;2022-11-20T12:17:34;2.63;;;2.27;;
1178;SDS011;578;48.408;10.004;2022-11-20T12:20:01;4.13;;;2.27;;
1178;SDS011;578;48.408;10.004;2022-11-20T12:22:30;1.83;;;1.50;;
1178;SDS011;578;48.408;10.004;2022-11-20T12:25:08;2.30;;;2.03;;
1178;SDS011;578;48.408;10.004;2022-11-20T12:27:52;2.50;;;2.10;;
1178;SDS011;578;48.408;10.004;2022-11-20T12:30:28;2.73;;;2.10;;
1178;SDS011;578;48.408;10.004;2022-11-20T12:33:04;3.77;;;2.30;;
1178;SDS011;578;48.408;10.004;2022-11-20T12:35:56;4.47;;;3.70;;
1178;SDS011;578;48.408;10.004;2022-11-20T12:38:42;4.00;;;3.60;;
1178;SDS011;578;48.408;10.004;2022-11-20T12:41:22;10.30;;;6.83;;
1178;SDS011;578;48.408;10.004;2022-11-20T12:44:24;9.23;;;4.17;;
1178;SDS011;578;48.408;10.004;2022-11-20T12:47:38;3.83;;;2.60;;
1178;SDS011;578;48.408;10.004;2022-11-20T12:50:21;5.03;;;3.40;;
1178;SDS011;578;48.408;10.004;2022-11-20T12:52:53;3.90;;;3.40;;
1178;SDS011;578;48.408;10.004;2022-11-20T12:55:28;2.83;;;2.63;;
1178;SDS011;578;48.408;10.004;2022-11-20T12:58:05;3.57;;;2.67;;
1178;SDS011;578;48.408;10.004;2022-11-20T13:00:39;3.10;;;2.30;;
1178;SDS011;578;48.408;10.004;2022-11-20T13:03:17;2.60;;;2.03;;
1178;SDS011;578;48.408;10.004;2022-11-20T13:06:10;4.30;;;2.47;;
1178;SDS011;578;48.408;10.004;2022-11-20T13:08:41;4.30;;;2.30;;
1178;SDS011;578;48.408;10.004;2022-11-20T13:11:15;2.00;;;1.67;;
1178;SDS011;578;48.408;10.004;2022-11-20T13:13:54;2.53;;;1.60;;
1178;SDS011;578;48.408;10.004;2022-11-20T13:16:30;4.30;;;1.23;;
1178;SDS011;578;48.408;10.004;2022-11-20T13:19:04;2.67;;;1.80;;
1178;SDS011;578;48.408;10.004;2022-11-20T13:21:35;3.60;;;1.73;;
1178;SDS011;578;48.408;10.004;2022-11-20T13:24:04;2.97;;;2.00;;
1178;SDS011;578;48.408;10.004;2022-11-20T13:26:31;3.27;;;2.00;;
1178;SDS011;578;48.408;10.004;2022-11-20T13:29:01;2.67;;;1.77;;
1178;SDS011;578;48.408;10.004;2022-11-20T13:31:35;2.70;;;1.40;;
1178;SDS011;578;48.408;10.004;2022-11-20T13:34:04;2.90;;;1.67;;
1178;SDS011;578;48.408;10.004;2022-11-20T13:36:32;2.90;;;1.20;;
1178;SDS011;578;48.408;10.004;2022-11-20T13:39:01;1.87;;;1.63;;
1178;SDS011;578;48.408;10.004;2022-11-20T13:41:29;3.30;;;2.17;;
1178;SDS011;578;48.408;10.004;2022-11-20T13:44:04;2.33;;;2.10;;
1178;SDS011;578;48.408;10.004;2022-11-20T13:46:37;2.43;;;1.53;;
1178;SDS011;578;48.408;10.004;2022-11-20T13:49:06;3.73;;;1.73;;
1178;SDS011;578;48.408;10.004;2022-11-20T13:51:37;3.00;;;1.20;;
1178;SDS011;578;48.408;10.004;2022-11-20T13:57:34;2.40;;;1.63;;
1178;SDS011;578;48.408;10.004;2022-11-20T14:00:15;4.80;;;2.83;;
1178;SDS011;578;48.408;10.004;2022-11-20T14:02:43;3.60;;;2.33;;
1178;SDS011;578;48.408;10.004;2022-11-20T14:05:18;7.10;;;3.60;;
1178;SDS011;578;48.408;10.004;2022-11-20T14:07:47;4.47;;;2.37;;
1178;SDS011;578;48.408;10.004;2022-11-20T14:10:20;3.67;;;1.60;;
1178;SDS011;578;48.408;10.004;2022-11-20T14:12:47;3.60;;;1.90;;
1178;SDS011;578;48.408;10.004;2022-11-20T14:15:24;4.13;;;1.13;;
1178;SDS011;578;48.408;10.004;2022-11-20T14:17:54;2.90;;;1.90;;
1178;SDS011;578;48.408;10.004;2022-11-20T14:20:21;1.70;;;1.10;;
1178;SDS011;578;48.408;10.004;2022-11-20T14:22:52;2.27;;;0.73;;
1178;SDS011;578;48.408;10.004;2022-11-20T14:25:20;6.03;;;2.30;;
1178;SDS011;578;48.408;10.004;2022-11-20T14:27:52;2.30;;;1.40;;
1178;SDS011;578;48.408;10.004;2022-11-20T14:30:20;9.13;;;2.77;;
1178;SDS011;578;48.408;10.004;2022-11-20T14:32:50;3.50;;;2.33;;
1178;SDS011;578;48.408;10.004;2022-11-20T14:35:20;3.73;;;1.83;;
1178;SDS011;578;48.408;10.004;2022-11-20T14:37:50;5.93;;;2.63;;
1178;SDS011;578;48.408;10.004;2022-11-20T14:40:24;1.80;;;1.33;;
1178;SDS011;578;48.408;10.004;2022-11-20T14:42:53;3.57;;;2.80;;
1178;SDS011;578;48.408;10.004;2022-11-20T14:45:20;4.33;;;2.33;;
1178;SDS011;578;48.408;10.004;2022-11-20T14:47:50;1.80;;;1.30;;
1178;SDS011;578;48.408;10.004;2022-11-20T14:50:19;2.97;;;1.80;;
1178;SDS011;578;48.408;10.004;2022-11-20T14:52:51;2.93;;;1.43;;
1178;SDS011;578;48.408;10.004;2022-11-20T14:55:25;3.17;;;1.57;;
1178;SDS011;578;48.408;10.004;2022-11-20T14:57:57;4.23;;;2.27;;
1178;SDS011;578;48.408;10.004;2022-11-20T15:00:25;3.13;;;1.77;;
1178;SDS011;578;48.408;10.004;2022-11-20T15:02:53;2.73;;;1.27;;
1178;SDS011;578;48.408;10.004;2022-11-20T15:05:21;2.70;;;1.83;;
1178;SDS011;578;48.408;10.004;2022-11-20T15:07:50;4.10;;;1.97;;
1178;SDS011;578;48.408;10.004;2022-11-20T15:10:29;2.90;;;2.37;;
1178;SDS011;578;48.408;10.004;2022-11-20T15:12:57;5.03;;;2.40;;
1178;SDS011;578;48.408;10.004;2022-11-20T15:15:29;4.20;;;2.27;;
1178;SDS011;578;48.408;10.004;2022-11-20T15:17:59;4.90;;;2.43;;
1178;SDS011;578;48.408;10.004;2022-11-20T15:20:28;8.93;;;4.07;;
1178;SDS011;578;48.408;10.004;2022-11-20T15:22:57;4.30;;;1.70;;
1178;SDS011;578;48.408;10.004;2022-11-20T15:25:24;4.97;;;2.83;;
1178;SDS011;578;48.408;10.004;2022-11-20T15:27:53;4.57;;;2.60;;
1178;SDS011;578;48.408;10.004;2022-11-20T15:30:21;4.23;;;2.70;;
1178;SDS011;578;48.408;10.004;2022-11-20T15:32:49;2.23;;;1.60;;
1178;SDS011;578;48.408;10.004;2022-11-20T15:35:17;4.83;;;1.87;;
1178;SDS011;578;48.408;10.004;2022-11-20T15:37:43;3.40;;;1.93;;
1178;SDS011;578;48.408;10.004;2022-11-20T15:40:10;4.93;;;2.30;;